Time;durP1;ratioP1;P1;durP2;ratioP2;P2;SDS_P1;SDS_P2;PMS_P1;PMS_P2;Temp;Humidity;BMP_temperature;BMP_pressure;BME280_temperature;BME280_humidity;BME280_pressure;Samples;Min_cycle;Max_cycle;Signal;HPM_P1;HPM_P2
2023/09/24 00:01:20;;;;;;;6.22;1.48;;;12.80;99.90;;;;;;4233005;28;20047;-82
2023/09/24 00:03:20;;;;;;;6.15;1.92;;;12.80;99.90;;;;;;4233376;28;20039;-81
2023/09/24 00:05:21;;;;;;;7.80;2.00;;;12.80;99.90;;;;;;4233409;28;20039;-81
2023/09/24 00:07:22;;;;;;;6.30;2.33;;;12.80;99.90;;;;;;4233131;28;20046;-81
2023/09/24 00:09:23;;;;;;;5.38;1.83;;;12.80;99.90;;;;;;4233104;28;20040;-82
2023/09/24 00:11:25;;;;;;;6.53;1.80;;;12.80;99.90;;;;;;4233169;28;20076;-82
2023/09/24 00:13:26;;;;;;;5.65;1.77;;;12.80;99.90;;;;;;4215083;28;20054;-82
2023/09/24 00:15:27;;;;;;;4.80;1.52;;;12.80;99.90;;;;;;4197739;28;20058;-82
2023/09/24 00:17:28;;;;;;;4.82;2.17;;;12.80;99.90;;;;;;4232888;28;20559;-81
2023/09/24 00:19:30;;;;;;;5.63;2.92;;;12.80;99.90;;;;;;4233019;28;20044;-82
2023/09/24 00:21:31;;;;;;;7.55;1.70;;;12.80;99.90;;;;;;4232514;28;20043;-82
2023/09/24 00:23:32;;;;;;;7.22;2.15;;;12.70;99.90;;;;;;4232895;28;20072;-82
2023/09/24 00:25:32;;;;;;;10.43;2.40;;;12.70;99.90;;;;;;4231714;28;20055;-82
2023/09/24 00:27:33;;;;;;;3.83;1.75;;;12.80;99.90;;;;;;4232855;28;20035;-82
2023/09/24 00:29:34;;;;;;;4.63;1.67;;;12.70;99.90;;;;;;4214333;28;20161;-81
2023/09/24 00:31:35;;;;;;;8.52;1.70;;;12.70;99.90;;;;;;4213999;28;20054;-82
2023/09/24 00:33:35;;;;;;;7.63;2.40;;;12.70;99.90;;;;;;4232713;28;20044;-82
2023/09/24 00:35:36;;;;;;;6.00;2.10;;;12.60;99.90;;;;;;4232687;28;20051;-81
2023/09/24 00:37:37;;;;;;;10.35;2.30;;;12.60;99.90;;;;;;4232558;28;20051;-82
2023/09/24 00:39:38;;;;;;;6.57;2.50;;;12.60;99.90;;;;;;4232542;28;20043;-82
2023/09/24 00:41:39;;;;;;;6.85;1.63;;;12.50;99.90;;;;;;4232515;28;20131;-82
2023/09/24 00:43:40;;;;;;;4.90;1.40;;;12.50;99.90;;;;;;4214241;28;20048;-82
2023/09/24 00:45:42;;;;;;;5.18;1.90;;;12.50;99.90;;;;;;4232488;28;20044;-82
2023/09/24 00:47:45;;;;;;;6.03;1.83;;;12.50;99.90;;;;;;4232493;28;20158;-81
2023/09/24 00:49:46;;;;;;;3.75;1.30;;;12.40;99.90;;;;;;4232153;28;20050;-82
2023/09/24 00:51:48;;;;;;;3.75;1.52;;;12.40;99.90;;;;;;4232439;28;20040;-82
2023/09/24 00:53:52;;;;;;;4.18;1.77;;;12.40;99.90;;;;;;4213966;28;20052;-81
2023/09/24 00:55:55;;;;;;;4.18;1.60;;;12.30;99.90;;;;;;4231985;28;20047;-82
2023/09/24 00:57:56;;;;;;;7.18;1.63;;;12.30;99.90;;;;;;4224961;28;20048;-81
2023/09/24 00:59:58;;;;;;;5.97;1.92;;;12.30;99.90;;;;;;4215410;28;20115;-82
2023/09/24 01:02:01;;;;;;;2.63;1.10;;;12.30;99.90;;;;;;4215082;28;20044;-81
2023/09/24 01:04:05;;;;;;;4.55;1.30;;;12.30;99.90;;;;;;4215065;28;20111;-81
2023/09/24 01:06:07;;;;;;;3.67;1.40;;;;;;;;;;4197198;28;20040;-82
2023/09/24 01:08:08;;;;;;;5.32;1.65;;;12.20;99.90;;;;;;4197290;28;20055;-81
2023/09/24 01:10:11;;;;;;;2.55;1.50;;;12.20;99.90;;;;;;4215088;28;20492;-81
2023/09/24 01:12:22;;;;;;;3.72;1.67;;;12.20;99.90;;;;;;4219651;28;20495;-81
2023/09/24 01:14:25;;;;;;;9.70;1.48;;;;;;;;;;4232057;28;20450;-81
2023/09/24 01:16:26;;;;;;;10.30;1.70;;;11.20;99.90;;;;;;4232024;28;20043;-81
2023/09/24 01:18:26;;;;;;;4.70;1.50;;;12.10;99.90;;;;;;4231239;28;20080;-81
2023/09/24 01:20:31;;;;;;;5.88;1.30;;;;;;;;;;4230417;28;20457;-81
2023/09/24 01:22:32;;;;;;;8.23;2.60;;;12.10;99.90;;;;;;4231385;28;20075;-81
2023/09/24 01:24:33;;;;;;;4.85;1.52;;;12.10;99.90;;;;;;4213504;28;20574;-81
2023/09/24 01:26:35;;;;;;;6.70;2.20;;;12.10;99.90;;;;;;4231887;28;20047;-81
2023/09/24 01:28:37;;;;;;;4.10;1.42;;;12.00;99.90;;;;;;4231375;28;20047;-81
2023/09/24 01:30:38;;;;;;;6.47;1.80;;;12.10;99.90;;;;;;4231418;28;20051;-81
2023/09/24 01:32:40;;;;;;;6.28;1.60;;;12.10;99.90;;;;;;4231572;28;20040;-81
2023/09/24 01:34:41;;;;;;;6.32;1.58;;;12.00;99.90;;;;;;4231765;28;20115;-81
2023/09/24 01:36:41;;;;;;;6.47;2.13;;;12.00;99.90;;;;;;4231440;28;20040;-81
2023/09/24 01:38:43;;;;;;;7.32;2.05;;;12.00;99.90;;;;;;4229628;28;20040;-81
2023/09/24 01:40:44;;;;;;;7.60;1.70;;;12.00;99.90;;;;;;4231409;28;20043;-81
2023/09/24 01:42:46;;;;;;;3.45;1.40;;;11.90;99.90;;;;;;4213312;28;20079;-81
2023/09/24 01:44:47;;;;;;;3.90;1.67;;;12.00;99.90;;;;;;4231607;28;20054;-81
2023/09/24 01:46:48;;;;;;;7.25;2.13;;;12.00;99.90;;;;;;4231537;28;20114;-81
2023/09/24 01:48:54;;;;;;;5.63;1.90;;;12.00;99.90;;;;;;4213493;28;20036;-81
2023/09/24 01:50:55;;;;;;;11.63;1.50;;;12.00;99.90;;;;;;4230935;28;20087;-81
2023/09/24 01:53:00;;;;;;;6.68;1.65;;;11.90;99.90;;;;;;4231053;28;20061;-81
2023/09/24 01:55:01;;;;;;;6.28;1.40;;;12.30;99.90;;;;;;4213379;28;20403;-81
2023/09/24 01:57:03;;;;;;;3.75;1.70;;;11.90;99.90;;;;;;4231032;28;20040;-81
2023/09/24 01:59:04;;;;;;;6.50;1.90;;;12.60;99.90;;;;;;4231085;28;20088;-81
2023/09/24 02:01:07;;;;;;;4.28;1.65;;;11.90;99.90;;;;;;4231444;28;20044;-81
2023/09/24 02:03:10;;;;;;;5.20;1.98;;;11.90;99.90;;;;;;4230831;28;20411;-81
2023/09/24 02:05:13;;;;;;;4.20;1.67;;;11.90;99.90;;;;;;4212982;28;20052;-82
2023/09/24 02:07:15;;;;;;;5.28;1.70;;;11.90;99.90;;;;;;4229810;28;20470;-80
2023/09/24 02:09:16;;;;;;;3.95;1.50;;;11.80;99.90;;;;;;4229769;28;20050;-80
2023/09/24 02:11:18;;;;;;;8.63;1.63;;;11.80;99.90;;;;;;4196490;28;20450;-80
2023/09/24 02:13:20;;;;;;;7.32;2.13;;;11.80;99.90;;;;;;4212984;28;20040;-80
2023/09/24 02:15:23;;;;;;;8.65;1.80;;;11.80;99.90;;;;;;4212391;28;20048;-80
2023/09/24 02:17:26;;;;;;;6.53;1.50;;;11.90;99.90;;;;;;4231070;28;20043;-80
2023/09/24 02:19:27;;;;;;;4.90;1.40;;;11.80;99.90;;;;;;4231217;28;20043;-80
2023/09/24 02:21:29;;;;;;;7.38;1.48;;;11.80;99.90;;;;;;4231029;28;20415;-81
2023/09/24 02:23:30;;;;;;;5.78;1.98;;;11.80;99.90;;;;;;4230665;28;20066;-80
2023/09/24 02:25:33;;;;;;;3.20;1.65;;;11.80;99.90;;;;;;4212700;28;20044;-80
2023/09/24 02:27:34;;;;;;;3.17;1.50;;;11.80;99.90;;;;;;4231087;28;20389;-80
2023/09/24 02:29:35;;;;;;;5.18;1.50;;;11.50;99.90;;;;;;4231097;28;20050;-80
2023/09/24 02:31:36;;;;;;;5.75;2.13;;;11.80;99.90;;;;;;4213140;28;20060;-80
2023/09/24 02:33:37;;;;;;;4.65;1.50;;;11.70;99.90;;;;;;4231054;28;20048;-80
2023/09/24 02:35:39;;;;;;;4.45;1.90;;;11.70;99.90;;;;;;4229270;28;20052;-80
2023/09/24 02:37:44;;;;;;;6.22;2.00;;;11.70;99.90;;;;;;4230656;28;20042;-80
2023/09/24 02:39:44;;;;;;;6.78;1.50;;;11.70;99.90;;;;;;4212844;28;20052;-80
2023/09/24 02:41:45;;;;;;;3.58;1.52;;;11.70;99.90;;;;;;4229612;28;20134;-80
2023/09/24 02:43:48;;;;;;;4.80;1.90;;;11.70;99.90;;;;;;4230999;28;20040;-80
2023/09/24 02:45:49;;;;;;;4.07;1.30;;;11.70;99.90;;;;;;4212232;28;20416;-81
2023/09/24 02:47:50;;;;;;;4.90;1.50;;;11.70;99.90;;;;;;4230175;28;20039;-80
2023/09/24 02:49:51;;;;;;;3.40;1.90;;;11.70;99.90;;;;;;4234101;28;20047;-81
2023/09/24 02:51:52;;;;;;;6.35;1.52;;;11.70;99.90;;;;;;4216015;28;20056;-80
2023/09/24 02:53:52;;;;;;;4.45;1.20;;;11.70;99.90;;;;;;4216205;28;20102;-82
2023/09/24 02:55:54;;;;;;;3.88;1.42;;;11.70;99.90;;;;;;4215590;28;20412;-82
2023/09/24 02:57:55;;;;;;;5.78;1.48;;;11.70;99.90;;;;;;4230527;28;20486;-80
2023/09/24 02:59:58;;;;;;;3.78;1.30;;;11.70;99.90;;;;;;4229691;28;20047;-81
2023/09/24 03:02:00;;;;;;;17.20;2.00;;;11.80;99.90;;;;;;4233859;28;20463;-80
2023/09/24 03:04:01;;;;;;;6.97;2.20;;;11.90;99.90;;;;;;4215729;28;20534;-80
2023/09/24 03:06:03;;;;;;;5.95;1.58;;;11.80;99.90;;;;;;4199235;28;20111;-80
2023/09/24 03:08:04;;;;;;;2.85;1.27;;;13.00;99.90;;;;;;4233735;28;20377;-80
2023/09/24 03:10:06;;;;;;;3.40;1.60;;;11.80;99.90;;;;;;4232166;28;20055;-82
2023/09/24 03:12:07;;;;;;;8.35;1.60;;;11.80;99.90;;;;;;4201080;28;20045;-82
2023/09/24 03:14:08;;;;;;;4.68;1.70;;;11.90;99.90;;;;;;4215449;28;20044;-82
2023/09/24 03:16:10;;;;;;;7.28;1.92;;;11.90;99.90;;;;;;4216951;28;20044;-82
2023/09/24 03:18:11;;;;;;;4.88;1.73;;;11.80;99.90;;;;;;4195630;28;20072;-81
2023/09/24 03:20:16;;;;;;;2.80;1.60;;;11.90;99.90;;;;;;4215641;28;20428;-80
2023/09/24 03:22:17;;;;;;;4.75;1.60;;;11.90;99.90;;;;;;4233508;28;20040;-81
2023/09/24 03:24:18;;;;;;;3.67;1.80;;;11.80;99.90;;;;;;4198398;28;20078;-80
2023/09/24 03:26:19;;;;;;;3.95;1.92;;;11.90;99.90;;;;;;4215536;28;20131;-80
2023/09/24 03:28:20;;;;;;;7.50;2.00;;;11.90;99.90;;;;;;4215569;28;20105;-80
2023/09/24 03:30:21;;;;;;;5.10;2.08;;;11.90;99.90;;;;;;4214595;28;20044;-81
2023/09/24 03:32:22;;;;;;;4.45;2.45;;;11.90;99.90;;;;;;4233512;28;20060;-81
2023/09/24 03:34:24;;;;;;;5.72;2.53;;;11.90;99.90;;;;;;4233406;28;20036;-81
2023/09/24 03:36:24;;;;;;;5.68;2.42;;;11.90;99.90;;;;;;4215274;28;20083;-81
2023/09/24 03:38:26;;;;;;;4.15;2.00;;;11.90;99.90;;;;;;4233257;28;20395;-81
2023/09/24 03:40:28;;;;;;;3.90;2.25;;;11.90;99.90;;;;;;4233515;28;20040;-81
2023/09/24 03:42:29;;;;;;;10.38;2.53;;;11.90;99.90;;;;;;4231812;28;20043;-81
2023/09/24 03:44:30;;;;;;;10.85;2.40;;;11.90;99.90;;;;;;4228075;28;20032;-81
2023/09/24 03:46:31;;;;;;;6.35;2.58;;;11.90;99.90;;;;;;4232766;28;20105;-81
2023/09/24 03:48:32;;;;;;;2.63;1.80;;;11.90;99.90;;;;;;4233361;28;20118;-81
2023/09/24 03:50:32;;;;;;;4.60;2.33;;;11.90;99.90;;;;;;4233042;28;20047;-81
2023/09/24 03:52:33;;;;;;;7.97;2.58;;;11.90;99.90;;;;;;4232739;28;20056;-81
2023/09/24 03:54:34;;;;;;;3.90;2.22;;;11.80;99.90;;;;;;4198451;28;20040;-81
2023/09/24 03:56:35;;;;;;;4.97;2.30;;;11.80;99.90;;;;;;4215129;28;20056;-81
2023/09/24 03:58:36;;;;;;;5.75;2.03;;;11.80;99.90;;;;;;4232727;28;20123;-81
2023/09/24 04:00:36;;;;;;;6.15;2.42;;;11.80;99.90;;;;;;4213890;28;20052;-81
2023/09/24 04:02:40;;;;;;;6.43;3.17;;;11.80;99.90;;;;;;4223134;28;20043;-81
2023/09/24 04:04:42;;;;;;;4.95;2.03;;;11.70;99.90;;;;;;4210902;28;20056;-81
2023/09/24 04:06:43;;;;;;;5.82;2.47;;;11.80;99.90;;;;;;4214898;28;20104;-81
2023/09/24 04:08:45;;;;;;;5.95;2.40;;;11.70;99.90;;;;;;4198278;28;20131;-81
2023/09/24 04:10:46;;;;;;;6.40;2.28;;;12.80;99.90;;;;;;4231860;28;20097;-81
2023/09/24 04:12:50;;;;;;;7.38;2.58;;;11.70;99.90;;;;;;4233005;28;20044;-81
2023/09/24 04:14:53;;;;;;;5.22;2.97;;;11.70;99.90;;;;;;4231506;28;20547;-81
2023/09/24 04:16:57;;;;;;;6.60;2.80;;;11.70;99.90;;;;;;4231600;28;20127;-81
2023/09/24 04:18:58;;;;;;;7.55;2.58;;;11.70;99.90;;;;;;4231853;28;20039;-81
2023/09/24 04:21:00;;;;;;;4.40;2.65;;;11.70;99.90;;;;;;4232866;28;20106;-81
2023/09/24 04:23:00;;;;;;;7.55;2.40;;;11.60;99.90;;;;;;4230891;28;20058;-81
2023/09/24 04:25:03;;;;;;;8.00;3.10;;;11.60;99.90;;;;;;4232563;28;20039;-81
2023/09/24 04:27:04;;;;;;;7.55;2.90;;;11.60;99.90;;;;;;4197659;28;20131;-81
2023/09/24 04:29:05;;;;;;;7.50;3.13;;;11.00;99.90;;;;;;4214616;28;20559;-81
2023/09/24 04:31:06;;;;;;;8.15;3.20;;;11.60;99.90;;;;;;4197486;28;20045;-81
2023/09/24 04:33:07;;;;;;;5.78;2.55;;;11.50;99.90;;;;;;4232386;28;20134;-81
2023/09/24 04:35:11;;;;;;;10.95;3.88;;;11.60;99.90;;;;;;4232425;28;20054;-81
2023/09/24 04:37:16;;;;;;;8.02;3.60;;;11.60;99.90;;;;;;4232483;28;20487;-81
2023/09/24 04:39:18;;;;;;;9.23;3.13;;;11.50;99.90;;;;;;4230506;28;20031;-81
2023/09/24 04:41:20;;;;;;;7.15;2.75;;;11.60;99.90;;;;;;4214667;28;20044;-81
2023/09/24 04:43:21;;;;;;;8.82;3.33;;;11.50;99.90;;;;;;4232337;28;20553;-81
2023/09/24 04:45:22;;;;;;;10.52;3.30;;;11.50;99.90;;;;;;4232304;28;20118;-81
2023/09/24 04:47:23;;;;;;;6.30;2.92;;;11.50;99.90;;;;;;4213993;28;20047;-81
2023/09/24 04:49:24;;;;;;;6.25;3.88;;;11.50;99.90;;;;;;4232169;28;20522;-81
2023/09/24 04:51:24;;;;;;;6.18;3.40;;;11.60;99.90;;;;;;4232000;28;20060;-81
2023/09/24 04:53:26;;;;;;;5.95;3.63;;;11.50;99.90;;;;;;4231765;28;20051;-81
2023/09/24 04:55:27;;;;;;;6.57;3.08;;;11.40;99.90;;;;;;4232038;28;20114;-81
2023/09/24 04:57:27;;;;;;;5.60;3.15;;;11.40;99.90;;;;;;4231908;28;20556;-81
2023/09/24 04:59:28;;;;;;;8.73;2.92;;;11.40;99.90;;;;;;4214326;28;20040;-81
2023/09/24 05:01:29;;;;;;;6.93;2.90;;;11.40;99.90;;;;;;4231399;28;20039;-81
2023/09/24 05:03:30;;;;;;;8.32;3.40;;;11.40;99.90;;;;;;4214182;28;20052;-81
2023/09/24 05:05:31;;;;;;;7.55;3.20;;;11.40;99.90;;;;;;4196546;28;20082;-81
2023/09/24 05:07:32;;;;;;;8.07;3.35;;;11.40;99.90;;;;;;4231815;28;20836;-81
2023/09/24 05:09:32;;;;;;;5.35;2.85;;;11.40;99.90;;;;;;4231920;28;20047;-81
2023/09/24 05:11:33;;;;;;;8.68;3.40;;;11.40;99.90;;;;;;4231443;28;20039;-81
2023/09/24 05:13:35;;;;;;;7.80;3.15;;;11.40;99.90;;;;;;4231059;28;20483;-81
2023/09/24 05:15:35;;;;;;;10.05;3.92;;;11.40;99.90;;;;;;4231098;28;20472;-81
2023/09/24 05:17:36;;;;;;;7.65;3.45;;;11.40;99.90;;;;;;4213528;28;20050;-81
2023/09/24 05:19:37;;;;;;;8.18;2.92;;;10.30;99.90;;;;;;4231765;28;20059;-81
2023/09/24 05:21:38;;;;;;;7.90;3.30;;;11.30;99.90;;;;;;4231695;28;20075;-81
2023/09/24 05:23:38;;;;;;;7.95;3.10;;;11.30;99.90;;;;;;4213683;28;20044;-81
2023/09/24 05:25:40;;;;;;;8.30;3.65;;;11.30;99.90;;;;;;4231512;28;20039;-81
2023/09/24 05:27:41;;;;;;;6.70;3.38;;;11.30;99.90;;;;;;4213492;28;20043;-81
2023/09/24 05:29:44;;;;;;;6.55;3.10;;;11.30;99.90;;;;;;4231095;28;20092;-81
2023/09/24 05:31:45;;;;;;;7.90;3.25;;;11.30;99.90;;;;;;4231523;28;20035;-81
2023/09/24 05:33:47;;;;;;;9.38;3.17;;;11.30;99.90;;;;;;4231492;28;20441;-81
2023/09/24 05:35:54;;;;;;;7.90;3.58;;;11.20;99.90;;;;;;4196708;28;20041;-81
2023/09/24 05:37:55;;;;;;;7.05;2.90;;;11.20;99.90;;;;;;4213591;28;20039;-81
2023/09/24 05:39:56;;;;;;;7.93;3.47;;;11.20;99.90;;;;;;4231523;28;20040;-81
2023/09/24 05:41:57;;;;;;;10.68;4.35;;;11.20;99.90;;;;;;4230941;28;20046;-81
2023/09/24 05:44:03;;;;;;;5.88;3.03;;;11.20;99.90;;;;;;4230982;28;20492;-81
2023/09/24 05:46:04;;;;;;;12.10;3.78;;;11.20;99.90;;;;;;4213188;28;20597;-81
2023/09/24 05:48:05;;;;;;;6.05;3.88;;;11.20;99.90;;;;;;4231286;28;20058;-81
2023/09/24 05:50:06;;;;;;;8.98;3.47;;;11.10;99.90;;;;;;4212957;28;20043;-81
2023/09/24 05:52:06;;;;;;;6.63;2.85;;;11.10;99.90;;;;;;4231152;28;20040;-81
2023/09/24 05:54:10;;;;;;;7.72;3.28;;;11.20;99.90;;;;;;4212386;28;20642;-81
2023/09/24 05:56:11;;;;;;;11.52;3.20;;;11.10;99.90;;;;;;4201043;28;20577;-81
2023/09/24 05:58:11;;;;;;;6.75;3.25;;;11.20;99.90;;;;;;4230781;28;20047;-81
2023/09/24 06:00:13;;;;;;;6.43;2.55;;;11.20;99.90;;;;;;4230924;28;20127;-81
2023/09/24 06:02:14;;;;;;;5.57;2.78;;;11.20;99.90;;;;;;4231141;28;20048;-81
2023/09/24 06:04:15;;;;;;;7.03;3.33;;;11.20;99.90;;;;;;4231058;28;20122;-81
2023/09/24 06:06:15;;;;;;;7.65;3.38;;;11.20;99.90;;;;;;4213104;28;20097;-81
2023/09/24 06:08:20;;;;;;;9.40;3.10;;;11.30;99.90;;;;;;4213510;28;20047;-81
2023/09/24 06:10:21;;;;;;;6.13;2.92;;;11.20;99.90;;;;;;4212363;28;20447;-81
2023/09/24 06:12:24;;;;;;;6.40;2.90;;;11.30;99.90;;;;;;4212819;28;20036;-81
2023/09/24 06:14:25;;;;;;;6.40;2.72;;;11.30;99.90;;;;;;4230938;28;20040;-81
2023/09/24 06:16:28;;;;;;;4.53;2.67;;;11.30;99.90;;;;;;4231222;28;20039;-81
2023/09/24 06:18:30;;;;;;;6.97;2.75;;;11.30;99.90;;;;;;4212877;28;20044;-81
2023/09/24 06:20:30;;;;;;;7.43;4.25;;;11.30;99.90;;;;;;4230221;28;20065;-81
2023/09/24 06:22:31;;;;;;;6.18;2.80;;;11.40;99.90;;;;;;4230537;28;20126;-81
2023/09/24 06:24:32;;;;;;;7.47;2.83;;;11.40;99.90;;;;;;4229191;28;20040;-81
2023/09/24 06:26:33;;;;;;;8.25;3.15;;;11.40;99.90;;;;;;4196320;28;20055;-81
2023/09/24 06:28:34;;;;;;;8.48;3.00;;;11.40;99.90;;;;;;4229621;28;20096;-81
2023/09/24 06:30:36;;;;;;;6.95;2.70;;;11.40;99.90;;;;;;4230907;28;20043;-81
2023/09/24 06:32:37;;;;;;;9.75;3.22;;;11.40;99.90;;;;;;4230918;28;20051;-81
2023/09/24 06:34:38;;;;;;;7.00;2.42;;;11.50;99.90;;;;;;4196286;28;20056;-81
2023/09/24 06:36:39;;;;;;;8.13;2.92;;;11.50;99.90;;;;;;4230113;28;20039;-81
2023/09/24 06:38:40;;;;;;;7.90;3.05;;;11.60;99.90;;;;;;4229507;28;20040;-81
2023/09/24 06:40:41;;;;;;;5.68;2.70;;;11.60;99.90;;;;;;4213244;28;20100;-81
2023/09/24 06:42:42;;;;;;;9.73;3.38;;;11.60;99.90;;;;;;4212474;28;20056;-81
2023/09/24 06:44:43;;;;;;;5.07;2.45;;;11.60;99.90;;;;;;4230703;28;20534;-81
2023/09/24 06:46:43;;;;;;;6.38;2.70;;;11.70;99.90;;;;;;4229708;28;20051;-81
2023/09/24 06:48:44;;;;;;;9.13;2.85;;;11.80;99.90;;;;;;4230327;28;20048;-81
2023/09/24 06:50:45;;;;;;;12.70;2.80;;;11.80;99.90;;;;;;4230519;28;20100;-81
2023/09/24 06:52:46;;;;;;;10.48;4.25;;;11.90;99.90;;;;;;4230581;28;20077;-81
2023/09/24 06:54:47;;;;;;;5.90;3.08;;;12.00;99.90;;;;;;4230775;28;20035;-81
2023/09/24 06:56:48;;;;;;;5.60;2.85;;;12.00;99.90;;;;;;4196118;28;20131;-80
2023/09/24 06:58:49;;;;;;;8.50;3.20;;;12.00;99.90;;;;;;4230599;28;20092;-81
2023/09/24 07:00:49;;;;;;;9.00;2.50;;;12.10;99.90;;;;;;4212151;28;20109;-81
2023/09/24 07:02:50;;;;;;;19.95;5.03;;;12.20;99.90;;;;;;4212522;28;20059;-81
2023/09/24 07:04:53;;;;;;;8.45;2.45;;;12.20;99.90;;;;;;4230781;28;20082;-82
2023/09/24 07:06:54;;;;;;;6.63;2.63;;;12.20;99.90;;;;;;4230343;28;20074;-81
2023/09/24 07:08:55;;;;;;;6.88;2.80;;;12.30;99.90;;;;;;4195915;28;20040;-81
2023/09/24 07:11:20;;;;;;;8.25;2.90;;;12.30;99.90;;;;;;4212431;28;20059;-81
2023/09/24 07:13:21;;;;;;;6.63;3.05;;;12.30;99.90;;;;;;4229246;28;20521;-81
2023/09/24 07:15:22;;;;;;;6.57;2.92;;;12.40;99.90;;;;;;4212085;28;20040;-81
2023/09/24 07:17:23;;;;;;;9.65;3.05;;;12.40;99.90;;;;;;4230622;28;20035;-81
2023/09/24 07:19:24;;;;;;;10.40;2.58;;;12.40;99.90;;;;;;4230727;28;20127;-81
2023/09/24 07:21:29;;;;;;;7.68;2.70;;;12.50;99.90;;;;;;4229196;28;20052;-81
2023/09/24 07:23:30;;;;;;;7.50;2.75;;;12.50;99.90;;;;;;4230665;28;20079;-81
2023/09/24 07:25:31;;;;;;;6.43;2.60;;;12.60;99.90;;;;;;4229217;28;20047;-81
2023/09/24 07:27:32;;;;;;;9.80;3.17;;;12.70;99.90;;;;;;4212875;28;20369;-83
2023/09/24 07:29:32;;;;;;;8.52;3.20;;;12.80;99.90;;;;;;4212350;28;20076;-83
2023/09/24 07:31:34;;;;;;;11.32;2.75;;;12.90;99.90;;;;;;4215590;28;20112;-83
2023/09/24 07:33:35;;;;;;;7.47;2.22;;;13.00;99.90;;;;;;4217570;28;20483;-83
2023/09/24 07:35:46;;;;;;;5.57;3.28;;;13.20;99.90;;;;;;4237349;28;20054;-83
2023/09/24 07:37:47;;;;;;;11.60;3.20;;;13.40;99.90;;;;;;4220526;28;20044;-84
2023/09/24 07:39:49;;;;;;;8.52;2.53;;;14.10;99.90;;;;;;4220797;28;20044;-82
2023/09/24 07:41:50;;;;;;;4.70;2.25;;;14.70;99.90;;;;;;4221977;28;20044;-82
2023/09/24 07:43:51;;;;;;;9.68;2.85;;;15.20;99.90;;;;;;4221420;28;20052;-82
2023/09/24 07:45:52;;;;;;;6.93;2.45;;;15.80;99.90;;;;;;4220321;28;20044;-83
2023/09/24 07:47:53;;;;;;;6.57;2.28;;;16.10;99.90;;;;;;4212994;28;20207;-82
2023/09/24 07:49:54;;;;;;;9.00;2.42;;;16.50;99.90;;;;;;4206676;28;20693;-82
2023/09/24 07:51:54;;;;;;;7.78;2.88;;;16.80;99.90;;;;;;4215472;28;20050;-82
2023/09/24 07:53:55;;;;;;;7.45;2.50;;;17.00;99.90;;;;;;4233704;28;20130;-82
2023/09/24 07:55:57;;;;;;;6.78;2.03;;;17.20;99.90;;;;;;4233450;28;20036;-83
2023/09/24 07:57:58;;;;;;;6.75;2.20;;;17.40;99.90;;;;;;4211136;28;20044;-83
2023/09/24 08:00:00;;;;;;;5.18;2.00;;;17.50;99.90;;;;;;4235126;28;20449;-84
2023/09/24 08:02:01;;;;;;;9.48;2.45;;;17.50;99.90;;;;;;4223568;28;20125;-83
2023/09/24 08:04:03;;;;;;;8.95;2.60;;;17.40;99.90;;;;;;4215193;28;20557;-83
2023/09/24 08:06:05;;;;;;;8.82;2.53;;;17.40;99.90;;;;;;4230508;28;20047;-83
2023/09/24 08:08:06;;;;;;;5.20;2.10;;;17.50;99.90;;;;;;4233030;28;20089;-83
2023/09/24 08:10:07;;;;;;;7.93;2.50;;;17.40;99.90;;;;;;4232899;28;20051;-83
2023/09/24 08:12:08;;;;;;;6.50;2.05;;;17.50;99.90;;;;;;4233149;28;20520;-83
2023/09/24 08:14:08;;;;;;;7.03;2.40;;;17.70;99.90;;;;;;4214802;28;20048;-83
2023/09/24 08:16:09;;;;;;;6.80;2.30;;;18.00;99.90;;;;;;4232920;28;20548;-83
2023/09/24 08:18:11;;;;;;;5.78;1.80;;;18.20;99.90;;;;;;4214653;28;20050;-83
2023/09/24 08:20:12;;;;;;;6.65;2.00;;;18.20;99.90;;;;;;4215019;28;20086;-83
2023/09/24 08:22:13;;;;;;;3.85;1.80;;;18.20;99.90;;;;;;4197796;28;20053;-83
2023/09/24 08:24:14;;;;;;;4.40;2.40;;;18.30;99.90;;;;;;4227265;28;20036;-84
2023/09/24 08:26:14;;;;;;;6.10;2.58;;;18.40;99.90;;;;;;4185286;28;20044;-82
2023/09/24 08:28:15;;;;;;;9.45;2.63;;;18.50;99.90;;;;;;4214404;28;20036;-82
2023/09/24 08:30:17;;;;;;;6.18;2.22;;;18.60;99.90;;;;;;4232249;28;20039;-84
2023/09/24 08:32:17;;;;;;;7.45;2.42;;;18.80;99.90;;;;;;4232496;28;20048;-83
2023/09/24 08:34:18;;;;;;;8.32;2.20;;;18.80;99.90;;;;;;4232325;28;20051;-83
2023/09/24 08:36:21;;;;;;;4.95;2.53;;;18.80;99.90;;;;;;4232540;28;20083;-83
2023/09/24 08:38:23;;;;;;;4.60;1.98;;;18.90;99.90;;;;;;4231849;28;20054;-83
2023/09/24 08:40:28;;;;;;;6.93;2.70;;;18.80;99.90;;;;;;4231900;28;20051;-83
2023/09/24 08:42:31;;;;;;;4.00;2.03;;;18.90;99.90;;;;;;4213967;28;20079;-83
2023/09/24 08:44:36;;;;;;;4.68;1.90;;;19.20;99.90;;;;;;4231235;28;20044;-83
2023/09/24 08:46:37;;;;;;;6.40;1.83;;;19.40;99.90;;;;;;4231527;28;20040;-83
2023/09/24 08:48:39;;;;;;;10.20;2.33;;;19.50;99.90;;;;;;4231767;28;20050;-83
2023/09/24 08:50:44;;;;;;;3.33;1.70;;;19.80;99.90;;;;;;4230893;28;20059;-83
2023/09/24 08:52:46;;;;;;;4.32;1.58;;;20.10;99.90;;;;;;4215851;28;20044;-83
2023/09/24 08:54:48;;;;;;;6.55;2.30;;;20.30;99.90;;;;;;4215242;28;20400;-83
2023/09/24 08:56:49;;;;;;;4.20;1.90;;;20.40;99.90;;;;;;4192955;28;20052;-83
2023/09/24 08:58:49;;;;;;;3.95;1.98;;;20.40;99.90;;;;;;4214677;28;20514;-83
2023/09/24 09:00:51;;;;;;;13.20;2.38;;;20.70;99.90;;;;;;4230959;28;20044;-83
2023/09/24 09:02:53;;;;;;;4.28;1.65;;;20.80;99.90;;;;;;4214978;28;20064;-83
2023/09/24 09:04:55;;;;;;;2.53;1.50;;;20.90;99.90;;;;;;4215194;28;20063;-84
2023/09/24 09:07:11;;;;;;;5.65;1.85;;;21.80;99.90;;;;;;4215518;28;20434;-83
2023/09/24 09:09:23;;;;;;;4.28;1.55;;;21.00;99.90;;;;;;4230510;28;20575;-83
2023/09/24 09:11:39;;;;;;;6.35;1.70;;;21.20;99.90;;;;;;4213770;28;20032;-83
2023/09/24 09:13:43;;;;;;;5.55;1.63;;;21.50;99.90;;;;;;4198069;28;20055;-83
2023/09/24 09:15:45;;;;;;;5.60;1.70;;;21.40;99.90;;;;;;4205967;28;20078;-83
2023/09/24 09:17:45;;;;;;;4.82;1.58;;;21.60;99.90;;;;;;4214825;28;20075;-83
2023/09/24 09:19:52;;;;;;;7.22;2.13;;;21.80;99.90;;;;;;4215058;28;20047;-82
2023/09/24 09:21:53;;;;;;;6.10;1.98;;;22.10;99.90;;;;;;4219125;28;20052;-83
2023/09/24 09:23:54;;;;;;;5.90;1.40;;;22.20;99.90;;;;;;4215003;28;20051;-83
2023/09/24 09:25:54;;;;;;;4.63;1.73;;;22.40;99.90;;;;;;4214679;28;20040;-85
2023/09/24 09:27:55;;;;;;;4.50;1.60;;;22.20;99.90;;;;;;4214107;28;20071;-84
2023/09/24 09:30:11;;;;;;;5.13;1.77;;;22.20;99.90;;;;;;4214947;28;20373;-84
2023/09/24 09:32:11;;;;;;;5.68;1.48;;;22.10;99.90;;;;;;4214152;28;20048;-85
2023/09/24 09:34:12;;;;;;;4.05;1.70;;;22.20;99.90;;;;;;4214779;28;20481;-86
2023/09/24 09:36:27;;;;;;;5.10;1.40;;;22.40;99.90;;;;;;4214688;28;20044;-86
2023/09/24 09:38:28;;;;;;;6.40;1.63;;;22.30;99.90;;;;;;4213532;28;20044;-86
2023/09/24 09:40:29;;;;;;;7.75;2.65;;;22.10;99.90;;;;;;4214653;28;20074;-85
2023/09/24 09:42:34;;;;;;;5.22;1.98;;;22.00;99.90;;;;;;4213543;28;20044;-83
2023/09/24 09:44:37;;;;;;;4.70;1.50;;;22.30;99.90;;;;;;4213395;28;20166;-84
2023/09/24 09:46:39;;;;;;;4.47;1.60;;;22.30;99.90;;;;;;4213067;28;20549;-84
2023/09/24 09:48:44;;;;;;;3.03;1.45;;;21.90;99.90;;;;;;4214417;28;20478;-84
2023/09/24 09:50:46;;;;;;;5.80;1.60;;;22.00;99.90;;;;;;4224545;28;20130;-82
2023/09/24 09:52:52;;;;;;;4.63;2.10;;;21.70;99.90;;;;;;4230660;28;20043;-82
2023/09/24 09:54:56;;;;;;;3.53;1.27;;;21.70;99.90;;;;;;4231024;28;20054;-86
2023/09/24 09:57:00;;;;;;;4.03;1.70;;;21.50;99.90;;;;;;4196697;28;20056;-85
2023/09/24 09:59:02;;;;;;;3.17;1.83;;;21.10;99.90;;;;;;4230145;28;20036;-84
2023/09/24 10:01:05;;;;;;;7.75;1.60;;;21.00;99.90;;;;;;4229485;28;20500;-82
2023/09/24 10:03:06;;;;;;;3.75;1.80;;;20.90;99.90;;;;;;4229863;28;20058;-82
2023/09/24 10:05:10;;;;;;;7.35;1.30;;;21.00;99.90;;;;;;4229908;28;20520;-81
2023/09/24 10:07:12;;;;;;;3.28;1.30;;;20.90;99.90;;;;;;4229654;28;20086;-82
2023/09/24 10:09:39;;;;;;;4.05;1.50;;;20.90;99.90;;;;;;4196676;28;20079;-84
2023/09/24 10:11:40;;;;;;;3.47;1.20;;;20.80;99.90;;;;;;4228185;28;20086;-83
2023/09/24 10:13:50;;;;;;;4.65;1.33;;;20.80;99.90;;;;;;4215011;28;20043;-82
2023/09/24 10:15:51;;;;;;;4.43;1.90;;;20.90;99.90;;;;;;4219659;28;20044;-82
2023/09/24 10:18:09;;;;;;;3.60;1.30;;;21.00;99.90;;;;;;4230572;28;20115;-82
2023/09/24 10:20:10;;;;;;;9.57;1.20;;;20.70;99.90;;;;;;4230441;28;20044;-81
2023/09/24 10:22:28;;;;;;;2.90;1.00;;;20.70;99.90;;;;;;4229631;28;20055;-82
2023/09/24 10:24:35;;;;;;;7.32;2.05;;;20.70;99.90;;;;;;4195846;28;20130;-83
2023/09/24 10:26:50;;;;;;;9.38;2.58;;;20.90;99.90;;;;;;4230978;28;20120;-87
2023/09/24 10:28:51;;;;;;;3.47;1.27;;;21.10;99.90;;;;;;4229219;28;20036;-82
2023/09/24 10:31:03;;;;;;;5.97;1.25;;;21.40;99.90;;;;;;4230802;28;20396;-82
2023/09/24 10:33:03;;;;;;;2.88;1.05;;;21.70;99.90;;;;;;4230952;28;20522;-83
2023/09/24 10:35:04;;;;;;;5.80;1.10;;;21.80;99.90;;;;;;4230679;28;20048;-82
2023/09/24 10:37:09;;;;;;;10.38;1.90;;;21.60;99.90;;;;;;4230571;28;20407;-85